Terminal Aerodrome Forecast
Issued by NWS King Salmon, AK

Home | Current Version | Previous Version | Text Only | Print | Product List | Glossary On
Versions: 1 2 3 4 5 6 7 8 9 10 11 12 13
000
FTAK31 PANC 250540
TAFAKN
TAF
PAKN 250540Z 2506/2606 VRB05KT P6SM SCT050 BKN080
     FM251000 09006KT P6SM SCT025 BKN050
      TEMPO 2511/2515 5SM BR
     FM252100 13008KT P6SM -SHRA SCT025 OVC050=

USA.gov is the U.S. government's official web portal to all federal, state and local government web resources and services.